Time;durP1;ratioP1;P1;durP2;ratioP2;P2;SDS_P1;SDS_P2;PMS_P1;PMS_P2;Temp;Humidity;BMP_temperature;BMP_pressure;BME280_temperature;BME280_humidity;BME280_pressure;Samples;Min_cycle;Max_cycle;Signal;HPM_P1;HPM_P2
2023/09/17 00:01:18;;;;;;;11.00;7.80;;;;;;;18.19;73.97;99267.08;232720;214;138765;-61
2023/09/17 00:06:28;;;;;;;11.60;8.50;;;;;;;18.13;73.61;99267.95;232731;214;147504;-62
2023/09/17 00:11:33;;;;;;;10.50;8.50;;;;;;;18.05;73.33;99265.65;232704;215;138678;-62
2023/09/17 00:16:38;;;;;;;12.30;8.50;;;;;;;17.98;73.22;99262.48;232906;214;137426;-62
2023/09/17 00:21:43;;;;;;;10.40;7.90;;;;;;;17.87;73.32;99264.69;232729;214;146217;-62
2023/09/17 00:26:48;;;;;;;10.40;8.30;;;;;;;17.76;73.37;99261.39;232719;215;140186;-60
2023/09/17 00:31:53;;;;;;;10.50;7.00;;;;;;;17.66;73.61;99258.81;233109;214;137042;-60
2023/09/17 00:37:00;;;;;;;12.70;8.30;;;;;;;17.62;73.53;99269.92;233165;214;145490;-59
2023/09/17 00:42:06;;;;;;;13.80;8.00;;;;;;;17.60;73.74;99268.92;232732;215;139651;-57
2023/09/17 00:47:12;;;;;;;9.90;8.20;;;;;;;17.54;73.71;99268.35;232888;214;137791;-59
2023/09/17 00:52:20;;;;;;;14.80;8.60;;;;;;;17.46;73.70;99265.08;232713;215;145724;-59
2023/09/17 00:57:25;;;;;;;14.10;8.30;;;;;;;17.40;73.99;99265.08;232669;215;138777;-61
2023/09/17 01:02:30;;;;;;;10.10;7.30;;;;;;;17.31;74.10;99262.96;232727;215;137276;-61
2023/09/17 01:07:36;;;;;;;10.20;7.40;;;;;;;17.25;74.35;99269.60;232765;215;145540;-59
2023/09/17 01:12:42;;;;;;;10.20;7.60;;;;;;;17.22;74.49;99264.59;232770;215;139015;-60
2023/09/17 01:17:46;;;;;;;12.10;7.80;;;;;;;17.23;74.63;99258.79;232688;215;137201;-60
2023/09/17 01:23:20;;;;;;;11.30;8.30;;;;;;;17.22;74.62;99266.23;232941;214;145587;-59
2023/09/17 01:28:25;;;;;;;13.80;8.00;;;;;;;17.19;74.72;99270.48;232628;214;138746;-60
2023/09/17 01:33:30;;;;;;;11.00;7.90;;;;;;;17.13;74.95;99265.91;232798;215;136816;-59
2023/09/17 01:38:41;;;;;;;11.00;7.70;;;;;;;17.09;75.02;99260.55;232757;214;147957;-57
2023/09/17 01:43:46;;;;;;;12.40;8.10;;;;;;;17.09;74.90;99250.52;232748;214;140203;-62
2023/09/17 01:48:55;;;;;;;13.80;8.50;;;;;;;17.07;74.98;99248.00;232775;215;138861;-58
2023/09/17 01:53:59;;;;;;;13.00;9.10;;;;;;;17.08;75.03;99254.20;232736;215;146268;-57
2023/09/17 01:59:04;;;;;;;12.30;8.50;;;;;;;17.05;75.42;99253.75;232901;214;138092;-59
2023/09/17 02:04:08;;;;;;;11.50;8.10;;;;;;;17.00;75.54;99261.45;232723;213;138034;-59
2023/09/17 02:09:12;;;;;;;11.20;8.30;;;;;;;16.98;75.88;99269.02;232790;215;147760;-60
2023/09/17 02:14:16;;;;;;;10.70;8.60;;;;;;;16.98;75.87;99267.39;232682;214;139134;-59
2023/09/17 02:19:22;;;;;;;11.90;8.40;;;;;;;16.99;75.85;99265.35;232705;214;138234;-59
2023/09/17 02:24:27;;;;;;;15.90;8.70;;;;;;;17.00;75.81;99253.18;232676;214;147671;-59
2023/09/17 02:29:32;;;;;;;10.30;8.40;;;;;;;16.96;75.87;99251.77;232850;214;139422;-59
2023/09/17 02:34:38;;;;;;;10.60;7.70;;;;;;;16.92;75.89;99252.16;232680;214;138252;-62
2023/09/17 02:39:42;;;;;;;10.50;8.00;;;;;;;16.89;76.01;99254.19;232664;215;147581;-61
2023/09/17 02:44:48;;;;;;;12.30;8.00;;;;;;;16.88;75.41;99251.80;232735;215;138627;-60
2023/09/17 02:49:52;;;;;;;11.80;8.30;;;;;;;16.89;75.33;99256.92;232685;214;137649;-59
2023/09/17 02:54:57;;;;;;;15.00;8.70;;;;;;;16.94;75.43;99254.30;232782;215;147532;-60
2023/09/17 03:00:05;;;;;;;10.90;8.40;;;;;;;16.89;75.21;99259.02;234659;214;139720;-61
2023/09/17 03:10:26;;;;;;;11.50;7.90;;;;;;;16.78;75.44;99251.48;231923;220;724479;-61
2023/09/17 03:15:33;;;;;;;12.10;7.60;;;;;;;16.75;75.35;99252.11;232308;219;137435;-60
2023/09/17 03:20:38;;;;;;;11.50;8.30;;;;;;;16.72;75.30;99257.41;232409;218;144019;-59
2023/09/17 03:25:42;;;;;;;12.60;8.10;;;;;;;16.70;75.46;99258.99;232214;219;138782;-60
2023/09/17 03:30:48;;;;;;;11.90;8.70;;;;;;;16.68;75.38;99253.42;232898;216;139025;-60
2023/09/17 03:35:54;;;;;;;11.70;8.90;;;;;;;16.64;75.22;99254.27;232995;216;143854;-60
2023/09/17 03:41:00;;;;;;;13.80;8.40;;;;;;;16.54;74.79;99254.63;232900;216;138980;-60
2023/09/17 03:46:05;;;;;;;10.70;7.90;;;;;;;16.41;74.70;99255.15;232830;215;137243;-59
2023/09/17 03:51:10;;;;;;;10.70;7.40;;;;;;;16.32;75.15;99252.44;232914;215;145565;-60
2023/09/17 03:56:17;;;;;;;11.60;8.10;;;;;;;16.30;75.25;99249.02;232865;215;138918;-61
2023/09/17 04:01:21;;;;;;;11.90;9.30;;;;;;;16.28;75.09;99255.80;232821;215;136972;-61
2023/09/17 04:06:29;;;;;;;11.70;8.70;;;;;;;16.29;75.40;99254.35;232841;216;145805;-58
2023/09/17 04:11:33;;;;;;;10.20;8.30;;;;;;;16.29;75.45;99254.35;232923;216;140593;-58
2023/09/17 04:16:37;;;;;;;9.80;7.20;;;;;;;16.25;75.52;99256.98;232885;216;137515;-57
2023/09/17 04:21:41;;;;;;;11.70;7.80;;;;;;;16.25;75.62;99265.58;232827;215;145790;-57
2023/09/17 04:26:48;;;;;;;13.30;9.40;;;;;;;16.26;75.73;99262.59;232830;215;138904;-58
2023/09/17 04:31:52;;;;;;;12.50;8.20;;;;;;;16.32;75.98;99265.31;232983;215;140147;-61
2023/09/17 04:36:58;;;;;;;13.10;9.00;;;;;;;16.38;76.03;99269.73;232812;215;145772;-60
2023/09/17 04:42:05;;;;;;;14.50;8.70;;;;;;;16.39;76.24;99272.11;232759;215;139800;-60
2023/09/17 04:47:09;;;;;;;12.60;8.20;;;;;;;16.40;75.96;99273.83;232853;215;137654;-59
2023/09/17 04:52:13;;;;;;;12.90;8.30;;;;;;;16.40;75.89;99273.70;232730;214;145868;-60
2023/09/17 04:57:20;;;;;;;11.90;8.70;;;;;;;16.46;76.06;99275.45;232775;215;140626;-62
2023/09/17 05:02:24;;;;;;;13.10;8.50;;;;;;;16.53;75.68;99275.45;232836;215;139113;-61
2023/09/17 05:07:29;;;;;;;13.30;9.00;;;;;;;16.57;76.16;99285.68;232704;215;145676;-61
2023/09/17 05:12:34;;;;;;;14.30;9.40;;;;;;;16.61;76.07;99294.14;232787;215;139705;-61
2023/09/17 05:17:39;;;;;;;13.30;9.80;;;;;;;16.62;76.27;99306.39;232906;215;137534;-60
2023/09/17 05:22:46;;;;;;;14.50;9.00;;;;;;;16.67;76.60;99306.37;232888;215;147466;-61
2023/09/17 05:27:51;;;;;;;12.40;9.10;;;;;;;16.76;76.82;99303.30;232844;215;138971;-63
2023/09/17 05:32:56;;;;;;;13.30;9.60;;;;;;;16.92;77.07;99303.03;232814;215;139181;-61
2023/09/17 05:38:02;;;;;;;31.10;23.40;;;;;;;17.13;77.18;99313.61;232687;215;145686;-59
2023/09/17 05:43:06;;;;;;;17.70;12.40;;;;;;;17.29;76.85;99320.35;232850;215;138730;-62
2023/09/17 05:48:09;;;;;;;16.80;10.40;;;;;;;17.41;76.75;99325.59;232898;215;137303;-61
2023/09/17 05:53:15;;;;;;;23.40;17.70;;;;;;;17.50;76.83;99325.95;232991;215;147427;-64
2023/09/17 05:58:22;;;;;;;;;;;;;;;17.69;77.18;99324.46;232804;215;139999;-64
2023/09/17 06:09:12;;;;;;;18.20;12.80;;;;;;;18.02;76.39;99321.60;231361;224;724464;-61
2023/09/17 06:14:18;;;;;;;19.00;12.30;;;;;;;18.06;76.24;99325.58;232914;216;137925;-62
2023/09/17 06:19:22;;;;;;;15.60;12.40;;;;;;;18.10;76.16;99321.21;232901;215;144114;-59
2023/09/17 06:24:28;;;;;;;17.30;12.00;;;;;;;18.09;76.16;99320.90;232891;216;139907;-59
2023/09/17 06:29:33;;;;;;;17.40;13.40;;;;;;;18.12;76.05;99325.69;233018;216;138073;-60
2023/09/17 06:34:37;;;;;;;21.90;14.70;;;;;;;18.18;76.12;99328.73;232881;216;143648;-60
2023/09/17 06:39:42;;;;;;;222.90;179.20;;;;;;;18.29;76.10;99333.36;232857;216;139707;-61
2023/09/17 06:44:47;;;;;;;29.10;21.70;;;;;;;18.39;76.03;99332.98;232878;216;137320;-61
2023/09/17 06:49:52;;;;;;;23.70;16.40;;;;;;;18.46;75.66;99338.65;232896;215;144045;-62
2023/09/17 06:54:59;;;;;;;22.50;14.80;;;;;;;18.53;75.82;99335.49;232884;215;138652;-61
2023/09/17 07:00:07;;;;;;;25.30;15.80;;;;;;;18.65;76.26;99333.73;232890;215;138146;-60
2023/09/17 07:05:13;;;;;;;20.80;15.90;;;;;;;19.15;76.15;99332.42;232772;215;147855;-64
2023/09/17 07:10:17;;;;;;;21.90;15.60;;;;;;;19.41;74.53;99338.81;232823;216;139134;-64
2023/09/17 07:15:25;;;;;;;19.70;15.60;;;;;;;19.66;73.94;99340.05;232815;216;138200;-64
2023/09/17 07:20:30;;;;;;;183.10;142.80;;;;;;;19.85;73.24;99334.14;232911;216;145739;-61
2023/09/17 07:25:36;;;;;;;23.80;19.00;;;;;;;19.82;72.81;99335.65;232876;216;140633;-62
2023/09/17 07:30:40;;;;;;;21.10;15.40;;;;;;;19.69;73.12;99339.27;232893;216;136901;-61
2023/09/17 07:35:45;;;;;;;22.40;14.10;;;;;;;19.69;73.61;99343.16;233038;216;146896;-59
2023/09/17 07:40:51;;;;;;;16.90;12.90;;;;;;;19.83;73.76;99340.95;232851;216;138677;-63
2023/09/17 07:45:55;;;;;;;17.50;13.00;;;;;;;19.90;73.51;99348.15;232826;216;137249;-60
2023/09/17 07:51:01;;;;;;;;;;;;;;;19.91;73.53;99351.54;232816;216;145732;-58
2023/09/17 07:56:04;;;;;;;16.70;12.00;;;;;;;20.00;73.45;99350.98;232906;216;139301;-61
2023/09/17 08:01:08;;;;;;;16.70;11.50;;;;;;;20.04;73.42;99348.08;232882;216;136908;-58
2023/09/17 08:06:12;;;;;;;18.70;13.20;;;;;;;20.14;73.35;99348.98;233057;216;145476;-60
2023/09/17 08:11:19;;;;;;;453.60;390.80;;;;;;;20.26;73.19;99350.44;232894;217;138847;-59
2023/09/17 08:16:27;;;;;;;40.80;30.80;;;;;;;20.56;73.50;99345.21;232767;215;137888;-63
2023/09/17 08:21:34;;;;;;;25.90;15.90;;;;;;;20.99;72.64;99345.27;232871;215;145504;-60
2023/09/17 08:26:39;;;;;;;20.00;14.40;;;;;;;21.25;71.53;99339.79;232676;215;139516;-59
2023/09/17 08:31:43;;;;;;;45.10;35.80;;;;;;;21.49;71.37;99338.08;232815;215;136889;-57
2023/09/17 08:36:47;;;;;;;21.40;15.40;;;;;;;21.61;70.47;99332.10;232745;215;146114;-57
2023/09/17 08:41:52;;;;;;;13.30;9.60;;;;;;;21.80;71.05;99332.11;232900;215;138776;-60
2023/09/17 08:46:59;;;;;;;8.90;6.30;;;;;;;21.94;68.48;99329.05;232843;215;232484;-58
2023/09/17 08:52:08;;;;;;;11.20;8.00;;;;;;;22.03;67.37;99330.44;232790;215;145555;-57
2023/09/17 08:57:16;;;;;;;20.90;13.40;;;;;;;22.19;67.30;99330.89;232801;215;138734;-61
2023/09/17 09:02:29;;;;;;;32.50;23.50;;;;;;;22.38;67.37;99326.58;232845;215;137768;-60
2023/09/17 09:07:35;;;;;;;14.50;9.60;;;;;;;22.57;66.33;99322.78;232823;215;145811;-56
2023/09/17 09:12:42;;;;;;;5.80;4.40;;;;;;;22.74;64.39;99325.40;232722;215;138784;-61
2023/09/17 09:17:46;;;;;;;208.30;168.70;;;;;;;22.89;63.19;99321.77;233001;215;137776;-57
2023/09/17 09:22:52;;;;;;;33.90;29.90;;;;;;;23.09;62.70;99314.25;232762;215;146701;-58
2023/09/17 09:28:00;;;;;;;8.80;5.80;;;;;;;23.29;62.40;99312.05;232814;215;138996;-59
2023/09/17 09:33:06;;;;;;;32.00;21.60;;;;;;;23.48;61.59;99311.34;232827;215;136780;-56
2023/09/17 09:38:11;;;;;;;3.80;3.30;;;;;;;23.60;58.89;99311.65;232748;215;145711;-64
2023/09/17 09:43:28;;;;;;;5.90;2.60;;;;;;;23.67;57.10;99306.77;232763;215;141494;-61
2023/09/17 09:48:39;;;;;;;91.10;81.20;;;;;;;23.73;55.81;99304.56;232888;215;136901;-61
2023/09/17 09:53:43;;;;;;;7.00;5.80;;;;;;;23.89;56.17;99300.42;232900;215;145487;-60
2023/09/17 09:58:48;;;;;;;3.10;2.80;;;;;;;24.16;55.95;99294.11;232756;215;138906;-60
2023/09/17 10:03:58;;;;;;;4.20;2.20;;;;;;;24.39;54.27;99290.21;232949;215;136947;-60
2023/09/17 10:09:06;;;;;;;13.40;9.80;;;;;;;24.60;53.76;99291.37;232799;215;145959;-59
2023/09/17 10:14:13;;;;;;;4.00;3.10;;;;;;;24.87;53.51;99289.84;232787;215;139050;-61
2023/09/17 10:19:21;;;;;;;8.40;7.00;;;;;;;25.04;52.71;99284.04;232865;215;136853;-60
2023/09/17 10:24:27;;;;;;;3.30;3.00;;;;;;;25.18;52.17;99282.72;232908;215;146027;-62
2023/09/17 10:29:34;;;;;;;4.60;2.70;;;;;;;25.06;51.74;99283.20;232793;215;138854;-63
2023/09/17 10:34:39;;;;;;;4.40;2.80;;;;;;;25.01;51.68;99285.75;232789;215;137067;-62
2023/09/17 10:39:44;;;;;;;6.40;3.70;;;;;;;24.94;52.35;99287.17;232764;215;146420;-62
2023/09/17 10:44:49;;;;;;;;;;;;;;;24.75;52.76;99285.92;232888;215;138786;-62
2023/09/17 10:49:57;;;;;;;7.60;3.90;;;;;;;24.65;52.96;99279.46;232956;215;131475;-61
2023/09/17 11:09:01;;;;;;;4.70;3.40;;;;;;;24.98;54.02;99276.92;231361;226;723414;-62
2023/09/17 11:14:05;;;;;;;6.10;3.00;;;;;;;25.23;53.33;99280.41;233015;215;137270;-60
2023/09/17 11:19:14;;;;;;;4.00;2.70;;;;;;;25.47;52.84;99276.16;232984;216;144472;-61
2023/09/17 11:28:35;;;;;;;3.70;2.30;;;;;;;25.94;50.15;99267.68;231356;224;723631;-62
2023/09/17 11:33:41;;;;;;;4.10;2.60;;;;;;;26.26;49.75;99268.30;232804;216;136690;-63
2023/09/17 11:38:47;;;;;;;2.60;2.40;;;;;;;26.59;49.97;99262.80;232903;216;144810;-62
2023/09/17 11:43:53;;;;;;;2.90;2.30;;;;;;;26.83;48.05;99260.25;232919;216;138646;-62
2023/09/17 11:49:08;;;;;;;2.90;2.10;;;;;;;26.93;47.22;99258.29;233015;216;137703;-61
2023/09/17 11:54:43;;;;;;;2.70;2.30;;;;;;;27.04;46.80;99249.40;232946;216;143911;-61
2023/09/17 12:00:29;;;;;;;1.90;1.80;;;;;;;27.14;45.23;99248.09;233036;216;147838;-60
2023/09/17 12:05:49;;;;;;;3.10;2.20;;;;;;;27.00;44.80;99239.57;232960;217;136731;-61
2023/09/17 12:11:00;;;;;;;289.80;258.10;;;;;;;26.78;44.83;99243.60;232872;216;144060;-60
2023/09/17 12:16:05;;;;;;;47.00;37.30;;;;;;;26.74;45.83;99239.19;232713;217;139295;-60
2023/09/17 12:21:22;;;;;;;9.80;6.20;;;;;;;26.59;46.15;99232.70;232810;217;137389;-61
2023/09/17 12:26:35;;;;;;;36.90;6.60;;;;;;;26.47;46.64;99233.93;232762;215;146645;-59
2023/09/17 12:31:41;;;;;;;22.60;17.90;;;;;;;26.61;46.47;99226.68;232754;215;139488;-60
2023/09/17 12:36:45;;;;;;;6.20;3.70;;;;;;;26.62;46.14;99222.99;232949;215;137902;-61
2023/09/17 12:41:51;;;;;;;4.80;2.80;;;;;;;26.47;45.85;99222.05;232880;215;148336;-63
2023/09/17 12:46:59;;;;;;;3.00;2.30;;;;;;;26.30;45.57;99225.64;232830;216;140465;-60
2023/09/17 12:52:04;;;;;;;2.80;2.10;;;;;;;26.06;46.12;99223.19;232840;215;137303;-58
2023/09/17 12:57:08;;;;;;;168.00;149.00;;;;;;;25.93;47.00;99223.34;232880;209;146043;-59
2023/09/17 13:02:13;;;;;;;;;;;;;;;25.89;47.28;99220.66;232888;215;139865;-60
2023/09/17 13:07:22;;;;;;;4.50;3.80;;;;;;;25.92;47.65;99219.07;233015;215;131627;-59
2023/09/17 13:12:27;;;;;;;3.60;2.70;;;;;;;26.10;47.51;99216.48;232960;215;145591;-61
2023/09/17 13:17:32;;;;;;;3.20;2.40;;;;;;;26.32;46.68;99215.73;232802;215;139784;-61
2023/09/17 13:22:39;;;;;;;2.60;2.40;;;;;;;26.52;46.58;99216.48;232823;216;137121;-59
2023/09/17 13:27:43;;;;;;;2.40;2.10;;;;;;;26.81;46.38;99209.94;232819;216;146275;-60
2023/09/17 13:32:48;;;;;;;40.30;35.50;;;;;;;27.27;46.41;99207.08;232895;216;140797;-59
2023/09/17 13:37:54;;;;;;;76.30;65.90;;;;;;;27.70;46.13;99202.20;232869;216;137125;-63
2023/09/17 13:42:57;;;;;;;4.30;3.90;;;;;;;27.96;45.06;99202.83;233036;216;145921;-61
2023/09/17 13:48:04;;;;;;;4.40;3.00;;;;;;;27.65;43.75;99203.13;232770;216;138683;-57
2023/09/17 13:53:08;;;;;;;3.10;2.50;;;;;;;27.25;43.87;99204.66;232880;215;138862;-63
2023/09/17 13:58:14;;;;;;;3.50;2.50;;;;;;;27.12;43.76;99198.14;232845;215;145528;-61
2023/09/17 14:03:18;;;;;;;;;;;;;;;26.95;43.84;99193.21;232874;215;138973;-62
2023/09/17 14:08:23;;;;;;;2.90;2.30;;;;;;;26.69;44.68;99191.63;232844;215;132540;-61
2023/09/17 14:13:33;;;;;;;4.10;2.60;;;;;;;26.42;45.57;99199.86;232896;216;145700;-59
2023/09/17 14:18:37;;;;;;;27.30;24.40;;;;;;;26.26;46.26;99195.60;233026;216;139331;-60
2023/09/17 14:23:43;;;;;;;11.80;6.10;;;;;;;26.15;46.74;99197.33;232840;215;138379;-63
2023/09/17 14:28:49;;;;;;;3.40;2.90;;;;;;;26.05;47.15;99200.52;232929;215;146217;-62
2023/09/17 14:33:54;;;;;;;2.90;2.40;;;;;;;25.90;47.16;99203.87;232959;215;140664;-61
2023/09/17 14:39:01;;;;;;;3.10;2.60;;;;;;;25.76;47.03;99207.70;232843;215;137541;-61
2023/09/17 14:44:06;;;;;;;22.20;19.80;;;;;;;25.66;47.20;99206.79;233050;216;147682;-58
2023/09/17 14:49:09;;;;;;;6.20;5.30;;;;;;;25.63;47.53;99205.58;233080;216;138904;-61
2023/09/17 14:54:15;;;;;;;3.20;2.30;;;;;;;25.58;47.73;99206.83;232883;215;136964;-62
2023/09/17 14:59:20;;;;;;;8.60;3.30;;;;;;;25.52;48.01;99210.57;232900;215;145581;-61
2023/09/17 15:04:27;;;;;;;7.20;3.90;;;;;;;25.47;48.24;99207.27;232811;216;138659;-61
2023/09/17 15:09:31;;;;;;;9.00;4.70;;;;;;;25.41;48.52;99208.95;232938;216;137292;-61
2023/09/17 15:14:36;;;;;;;3.70;3.10;;;;;;;25.34;49.30;99205.75;232901;215;145574;-59
2023/09/17 15:19:40;;;;;;;;;;;;;;;25.32;49.52;99203.93;232863;216;138759;-62
2023/09/17 15:24:46;;;;;;;3.80;3.40;;;;;;;25.23;50.13;99201.29;233031;216;131067;-64
2023/09/17 15:29:51;;;;;;;373.60;324.00;;;;;;;25.16;50.60;99202.86;232835;216;145643;-59
2023/09/17 15:34:57;;;;;;;23.00;20.60;;;;;;;25.08;51.14;99199.27;232816;215;139130;-59
2023/09/17 15:40:05;;;;;;;5.70;4.30;;;;;;;25.07;51.41;99197.27;232905;216;138240;-62
2023/09/17 15:45:12;;;;;;;3.40;3.00;;;;;;;24.99;50.79;99195.80;232836;215;145700;-63
2023/09/17 15:50:16;;;;;;;5.00;2.90;;;;;;;24.91;50.76;99193.94;232814;215;138664;-64
2023/09/17 15:55:23;;;;;;;4.30;2.60;;;;;;;24.84;50.96;99194.71;232983;215;137581;-62
2023/09/17 16:00:27;;;;;;;5.20;3.50;;;;;;;24.83;51.25;99194.33;232847;216;145639;-64
2023/09/17 16:05:31;;;;;;;9.50;6.80;;;;;;;24.80;51.49;99194.29;232860;216;139651;-60
2023/09/17 16:10:38;;;;;;;192.40;171.50;;;;;;;24.75;51.96;99193.34;232956;216;136865;-59
2023/09/17 16:15:43;;;;;;;11.60;10.40;;;;;;;24.71;52.59;99193.14;232860;215;145857;-61
2023/09/17 16:20:47;;;;;;;8.20;4.60;;;;;;;24.60;53.02;99191.77;232818;215;140330;-60
2023/09/17 16:25:51;;;;;;;11.00;8.90;;;;;;;24.50;53.18;99191.48;232879;215;137209;-59
2023/09/17 16:30:56;;;;;;;6.00;3.80;;;;;;;24.41;53.56;99194.40;233002;215;146471;-57
2023/09/17 16:36:00;;;;;;;7.80;3.90;;;;;;;24.29;54.04;99195.38;232821;215;140706;-56
2023/09/17 16:41:04;;;;;;;3.40;3.10;;;;;;;24.19;54.56;99195.85;232802;215;137642;-56
2023/09/17 16:46:07;;;;;;;5.60;3.90;;;;;;;24.07;55.13;99193.77;232866;216;145958;-60
2023/09/17 16:51:10;;;;;;;6.50;3.90;;;;;;;23.96;55.66;99194.64;232837;215;140706;-60
2023/09/17 16:56:14;;;;;;;65.10;52.40;;;;;;;23.85;56.59;99195.06;232940;216;137144;-60
2023/09/17 17:01:19;;;;;;;20.70;14.50;;;;;;;23.78;57.05;99193.08;232985;215;145652;-60
2023/09/17 17:06:25;;;;;;;11.40;8.30;;;;;;;23.68;57.73;99189.03;232824;215;138980;-59
2023/09/17 17:11:31;;;;;;;12.40;6.80;;;;;;;23.56;58.38;99192.33;232847;216;137209;-61
2023/09/17 17:16:35;;;;;;;;;;;;;;;23.46;58.61;99200.42;232935;216;147104;-59
2023/09/17 17:21:39;;;;;;;8.20;4.60;;;;;;;23.34;59.03;99206.63;232875;215;138701;-59
2023/09/17 17:26:43;;;;;;;6.40;4.80;;;;;;;23.23;59.69;99206.58;232853;215;137368;-62
2023/09/17 17:31:49;;;;;;;4.80;3.80;;;;;;;23.15;59.78;99215.27;232857;216;145676;-60
2023/09/17 17:36:56;;;;;;;6.30;4.20;;;;;;;23.06;60.12;99216.25;232927;215;138738;-62
2023/09/17 17:42:03;;;;;;;4.40;4.00;;;;;;;23.00;60.41;99221.67;232815;215;137719;-59
2023/09/17 17:47:07;;;;;;;336.50;293.10;;;;;;;22.93;60.73;99224.61;232929;215;146423;-60
2023/09/17 17:52:11;;;;;;;14.90;12.10;;;;;;;22.81;60.69;99229.17;232808;215;141050;-62
2023/09/17 17:57:19;;;;;;;7.80;5.30;;;;;;;22.63;60.81;99225.44;232753;215;139661;-61
2023/09/17 18:02:24;;;;;;;8.20;4.80;;;;;;;22.51;61.36;99237.14;232873;215;145720;-61
2023/09/17 18:07:29;;;;;;;7.80;4.70;;;;;;;22.43;61.93;99235.45;232859;214;138920;-61
2023/09/17 18:12:35;;;;;;;8.20;5.40;;;;;;;22.36;62.63;99236.94;232842;215;138400;-63
2023/09/17 18:17:38;;;;;;;10.60;5.80;;;;;;;22.42;63.36;99239.91;232741;215;145821;-63
2023/09/17 18:22:43;;;;;;;;;;;;;;;22.49;63.16;99238.64;232731;215;138896;-63
2023/09/17 18:27:48;;;;;;;8.10;5.50;;;;;;;22.49;63.43;99245.28;232760;215;131084;-62
2023/09/17 18:32:53;;;;;;;6.80;4.90;;;;;;;22.44;63.35;99247.27;232746;215;147545;-61
2023/09/17 18:38:00;;;;;;;552.60;456.70;;;;;;;22.38;63.60;99249.52;232662;214;139489;-60
2023/09/17 18:43:04;;;;;;;16.10;12.10;;;;;;;22.20;63.72;99246.75;232827;214;140963;-56
2023/09/17 18:48:08;;;;;;;8.20;6.30;;;;;;;21.95;64.05;99250.86;232694;214;145652;-60
2023/09/17 18:53:12;;;;;;;11.50;5.30;;;;;;;21.81;64.75;99259.38;232677;215;140929;-61
2023/09/17 18:58:16;;;;;;;9.30;5.50;;;;;;;21.70;65.06;99266.13;232733;215;140646;-60
2023/09/17 19:03:20;;;;;;;10.90;5.30;;;;;;;21.61;65.59;99261.90;232732;215;146459;-60
2023/09/17 19:08:26;;;;;;;9.70;5.70;;;;;;;21.50;65.98;99268.40;232771;214;138989;-60
2023/09/17 19:13:31;;;;;;;8.50;5.30;;;;;;;21.37;66.37;99264.17;232815;214;137594;-61
2023/09/17 19:18:38;;;;;;;8.30;4.70;;;;;;;21.25;66.85;99264.64;232789;215;145785;-62
2023/09/17 19:23:47;;;;;;;14.60;5.20;;;;;;;21.17;67.28;99265.85;232819;215;138999;-60
2023/09/17 19:28:51;;;;;;;8.20;5.10;;;;;;;21.07;67.78;99264.40;232613;214;137402;-60
2023/09/17 19:33:58;;;;;;;10.50;5.10;;;;;;;20.98;68.11;99260.20;232662;214;146594;-58
2023/09/17 19:39:02;;;;;;;;;;;;;;;20.93;68.30;99263.58;232747;214;140206;-58
2023/09/17 19:44:07;;;;;;;7.30;5.00;;;;;;;20.86;68.31;99264.34;232645;214;131105;-60
2023/09/17 19:49:13;;;;;;;8.50;5.00;;;;;;;20.76;68.47;99263.58;232785;214;145654;-61
2023/09/17 19:54:18;;;;;;;8.20;5.70;;;;;;;20.69;68.72;99257.90;232711;214;139838;-59
2023/09/17 19:59:24;;;;;;;9.50;5.80;;;;;;;20.62;69.12;99254.15;232741;215;138764;-60
2023/09/17 20:04:52;;;;;;;9.50;5.60;;;;;;;20.56;69.26;99251.66;231390;224;724399;-56
2023/09/17 20:09:55;;;;;;;6.50;4.70;;;;;;;20.47;69.40;99257.90;232858;216;137448;-57
2023/09/17 20:15:00;;;;;;;7.50;5.50;;;;;;;20.42;69.78;99251.59;232893;216;143938;-62
2023/09/17 20:20:08;;;;;;;7.00;5.60;;;;;;;20.37;69.85;99245.76;232873;216;140824;-58
2023/09/17 20:25:21;;;;;;;8.60;5.60;;;;;;;20.32;69.92;99244.30;232893;217;137563;-59
2023/09/17 20:30:26;;;;;;;7.90;5.80;;;;;;;20.24;70.03;99240.55;232786;217;144423;-58
2023/09/17 20:35:32;;;;;;;9.30;5.50;;;;;;;20.17;70.36;99240.59;232943;217;140925;-59
2023/09/17 20:40:36;;;;;;;9.20;5.80;;;;;;;20.06;70.59;99243.74;232881;216;137181;-59
2023/09/17 20:45:40;;;;;;;8.60;4.60;;;;;;;20.01;70.71;99243.59;232859;216;143826;-60
2023/09/17 20:50:46;;;;;;;9.40;5.00;;;;;;;19.95;70.93;99243.23;232968;216;138715;-60
2023/09/17 20:55:53;;;;;;;8.10;5.60;;;;;;;19.94;70.99;99240.49;233052;215;137475;-59
2023/09/17 21:00:57;;;;;;;8.10;5.90;;;;;;;19.90;70.91;99237.06;232924;216;145818;-59
2023/09/17 21:06:06;;;;;;;9.20;6.50;;;;;;;19.85;71.14;99239.73;232851;216;137739;-58
2023/09/17 21:11:09;;;;;;;9.00;6.30;;;;;;;19.79;71.21;99243.15;232633;214;136798;-58
2023/09/17 21:16:14;;;;;;;7.60;5.60;;;;;;;19.72;71.30;99249.97;232751;214;146714;-60
2023/09/17 21:21:19;;;;;;;9.50;5.50;;;;;;;19.64;71.40;99253.48;232760;215;140484;-59
2023/09/17 21:26:24;;;;;;;8.30;5.70;;;;;;;19.59;71.69;99256.06;232865;214;137964;-59
2023/09/17 21:31:30;;;;;;;8.90;5.80;;;;;;;19.58;71.77;99259.05;233002;214;145410;-59
2023/09/17 21:36:35;;;;;;;8.30;5.90;;;;;;;19.57;72.06;99250.33;232799;215;139775;-58
2023/09/17 21:41:38;;;;;;;9.30;5.90;;;;;;;19.56;72.22;99247.55;232803;215;137587;-62
2023/09/17 21:46:43;;;;;;;7.60;5.90;;;;;;;19.53;72.25;99246.23;232763;215;145398;-58
2023/09/17 21:51:48;;;;;;;8.80;6.10;;;;;;;19.47;72.37;99240.30;232702;215;140034;-59
2023/09/17 21:56:52;;;;;;;9.10;5.90;;;;;;;19.36;72.79;99234.16;232787;215;137315;-59
2023/09/17 22:01:59;;;;;;;9.90;5.70;;;;;;;19.33;72.83;99226.55;233004;215;146664;-58
2023/09/17 22:07:05;;;;;;;7.30;5.80;;;;;;;19.32;73.13;99221.94;232759;215;140330;-60
2023/09/17 22:12:11;;;;;;;9.60;5.70;;;;;;;19.33;73.07;99218.95;232844;214;137783;-60
2023/09/17 22:17:16;;;;;;;8.10;5.90;;;;;;;19.30;73.08;99214.22;232731;215;145569;-58
2023/09/17 22:22:20;;;;;;;7.70;5.80;;;;;;;19.24;72.90;99215.31;232815;214;138499;-59
2023/09/17 22:27:25;;;;;;;7.60;6.10;;;;;;;19.16;72.98;99215.90;232767;215;136626;-60
2023/09/17 22:32:30;;;;;;;7.70;5.00;;;;;;;19.08;73.35;99216.28;232701;215;145558;-61
2023/09/17 22:37:35;;;;;;;8.70;5.70;;;;;;;19.04;73.32;99217.06;232866;215;138706;-60
2023/09/17 22:42:39;;;;;;;9.80;5.90;;;;;;;19.01;73.45;99215.70;232806;215;137789;-60
2023/09/17 22:47:42;;;;;;;6.90;5.70;;;;;;;18.98;73.34;99216.90;232704;214;146453;-60
2023/09/17 22:52:48;;;;;;;;;;;;;;;18.93;73.36;99217.16;234598;215;140555;-62
2023/09/17 22:57:51;;;;;;;8.40;5.50;;;;;;;18.86;73.27;99214.21;234736;215;130175;-60
2023/09/17 23:08:49;;;;;;;6.60;4.60;;;;;;;18.74;73.48;99216.44;231430;224;723594;-61
2023/09/17 23:13:56;;;;;;;7.70;4.70;;;;;;;18.70;73.35;99216.29;232565;219;136916;-59
2023/09/17 23:19:00;;;;;;;9.50;5.40;;;;;;;18.67;73.29;99215.27;232903;217;144295;-58
2023/09/17 23:24:07;;;;;;;7.40;5.00;;;;;;;18.64;73.35;99212.41;232849;215;138982;-58
2023/09/17 23:29:11;;;;;;;8.80;5.30;;;;;;;18.60;73.21;99215.02;232906;215;136953;-59
2023/09/17 23:34:20;;;;;;;7.10;4.90;;;;;;;18.53;73.36;99212.98;232922;215;144960;-61
2023/09/17 23:39:26;;;;;;;8.80;5.00;;;;;;;18.48;73.43;99206.42;232852;216;139780;-58
2023/09/17 23:44:32;;;;;;;7.50;4.80;;;;;;;18.39;73.69;99208.32;232781;216;137655;-58
2023/09/17 23:49:38;;;;;;;7.60;4.80;;;;;;;18.33;73.74;99220.00;232997;215;143870;-57
2023/09/17 23:54:41;;;;;;;6.40;5.20;;;;;;;18.31;73.88;99214.30;232844;215;140569;-56
2023/09/17 23:59:44;;;;;;;7.10;5.00;;;;;;;18.31;73.90;99211.41;232751;215;137380;-59
